This is the latest recevied weather packets stored in our database for station/object KO4MMQ-10. If no packets are shown the sender has not sent any weather packets the latest 10 day(s).
| Time | Temp. | Humidity | Pressure | Rain* | Wind** | Luminosity | Snow |
|---|---|---|---|---|---|---|---|
| 1777570108 | 17.78° C | 48% | 1016.6 hPa | 0 mm | - | - | - |
| 1777569508 | 17.22° C | 48% | 1016.5 hPa | 0 mm | - | - | - |
| 1777568908 | 17.78° C | 52% | 1016.5 hPa | 0 mm | - | - | - |
| 1777567708 | 17.22° C | 50% | 1016.7 hPa | 0 mm | - | - | - |
| 1777560509 | 14.44° C | 61% | 1016.7 hPa | 0 mm | - | - | - |
| 1777556308 | 13.33° C | 68% | 1016.6 hPa | 0 mm | - | - | - |
| 1777551508 | 11.67° C | 79% | 1016.7 hPa | 0 mm | - | - | - |
| 1777549708 | 11.11° C | 81% | 1016.7 hPa | 0 mm | - | - | - |
| 1777547908 | 11.67° C | 80% | 1016.1 hPa | 0 mm | - | - | - |
| 1777547308 | 11.67° C | 79% | 1015.9 hPa | 0 mm | - | - | - |
| 1777546108 | 11.67° C | 79% | 1016 hPa | 0 mm | - | - | - |
| 1777545508 | 12.22° C | 79% | 1015.8 hPa | 0 mm | - | - | - |
| 1777544908 | 12.22° C | 78% | 1015.8 hPa | 0 mm | - | - | - |
| 1777544308 | 12.22° C | 78% | 1015.9 hPa | 0 mm | - | - | - |
| 1777543708 | 12.78° C | 78% | 1015.7 hPa | 0 mm | - | - | - |
| 1777543108 | 12.78° C | 78% | 1015.6 hPa | 0 mm | - | - | - |
| 1777542508 | 12.78° C | 77% | 1015.5 hPa | 0 mm | - | - | - |
| 1777541907 | 12.78° C | 78% | 1015.5 hPa | 0 mm | - | - | - |
| 1777541308 | 12.78° C | 77% | 1015.6 hPa | 0 mm | - | - | - |
| 1777540708 | 13.33° C | 78% | 1015.4 hPa | 0 mm | - | - | - |
| 1777540108 | 13.33° C | 78% | 1015.5 hPa | 0 mm | - | - | - |
| 1777539508 | 13.33° C | 77% | 1015.4 hPa | 0 mm | - | - | - |
| 1777538908 | 13.33° C | 78% | 1015.2 hPa | 0 mm | - | - | - |
| 1777538307 | 13.33° C | 78% | 1015.1 hPa | 0 mm | - | - | - |
| 1777537109 | 13.89° C | 77% | 1014.5 hPa | 0 mm | - | - | - |
* Rain latest hour (hover to see other rain measurements)
** Current wind speed in m/s (hover to see current wind gust speed)